Time;durP1;ratioP1;P1;durP2;ratioP2;P2;SDS_P1;SDS_P2;PMS_P1;PMS_P2;Temp;Humidity;BMP_temperature;BMP_pressure;BME280_temperature;BME280_humidity;BME280_pressure;Samples;Min_cycle;Max_cycle;Signal;HPM_P1;HPM_P2
2022/08/14 00:00:43;;;;;;;;;;;;;;;;;;5072972;28;1182;-70
2022/08/14 00:03:16;;;;;;;;;;;;;;;;;;5074747;28;906;-70
2022/08/14 00:05:43;;;;;;;;;;;;;;;;;;5073243;28;1902;-70
2022/08/14 00:08:08;;;;;;;;;;;;;;;;;;5074706;28;824;-70
2022/08/14 00:10:34;;;;;;;;;;;;;;;;;;5075054;28;840;-70
2022/08/14 00:12:59;;;;;;;;;;;;;;;;;;5073527;28;863;-70
2022/08/14 00:15:26;;;;;;;;;;;;;;;;;;5074522;28;839;-70
2022/08/14 00:17:52;;;;;;;;;;;;;;;;;;5074432;28;879;-70
2022/08/14 00:20:20;;;;;;;;;;;;;;;;;;5074996;28;903;-71
2022/08/14 00:22:45;;;;;;;;;;;;;;;;;;5074419;28;789;-70
2022/08/14 00:25:10;;;;;;;;;;;;;;;;;;5073188;28;1949;-70
2022/08/14 00:27:36;;;;;;;;;;;;;;;;;;5072638;28;900;-70
2022/08/14 00:30:04;;;;;;;;;;;;;;;;;;5072622;28;1565;-70
2022/08/14 00:32:29;;;;;;;;;;;;;;;;;;5073628;28;1226;-70
2022/08/14 00:34:55;;;;;;;;;;;;;;;;;;5073436;28;1421;-70
2022/08/14 00:37:21;;;;;;;;;;;;;;;;;;5076010;28;1214;-70
2022/08/14 00:39:46;;;;;;;;;;;;;;;;;;5093562;28;958;-71
2022/08/14 00:42:11;;;;;;;;;;;;;;;;;;5093938;28;959;-71
2022/08/14 00:44:37;;;;;;;;;;;;;;;;;;5093990;28;865;-70
2022/08/14 00:47:07;;;;;;;;;;;;;;;;;;5093503;28;2246;-71
2022/08/14 00:49:32;;;;;;;;;;;;;;;;;;5075780;28;828;-70
2022/08/14 00:51:59;;;;;;;;;;;;;;;;;;5075256;28;876;-70
2022/08/14 00:54:25;;;;;;;;;;;;;;;;;;5058402;28;1250;-70
2022/08/14 00:56:51;;;;;;;;;;;;;;;;;;5093526;28;789;-70
2022/08/14 00:59:16;;;;;;;;;;;;;;;;;;5075021;28;1141;-70
2022/08/14 01:01:42;;;;;;;;;;;;;;;;;;5076672;28;1274;-71
2022/08/14 01:04:07;;;;;;;;;;;;;;;;;;5074464;28;1247;-70
2022/08/14 01:06:33;;;;;;;;;;;;;;;;;;5092739;28;1903;-70
2022/08/14 01:08:59;;;;;;;;;;;;;;;;;;5075060;28;1342;-70
2022/08/14 01:11:25;;;;;;;;;;;;;;;;;;5093116;28;837;-70
2022/08/14 01:13:51;;;;;;;;;;;;;;;;;;5093009;28;966;-70
2022/08/14 01:16:19;;;;;;;;;;;;;;;;;;5074911;28;1239;-70
2022/08/14 01:21:33;;;;;;;;;;;;;;;;;;5093660;28;702;-70
2022/08/14 01:23:59;;;;;;;;;;;;;;;;;;5093840;28;872;-70
2022/08/14 01:26:25;;;;;;;;;;;;;;;;;;5093467;28;1902;-70
2022/08/14 01:28:54;;;;;;;;;;;;;;;;;;5075354;28;1191;-70
2022/08/14 01:31:20;;;;;;;;;;;;;;;;;;5094105;28;895;-70
2022/08/14 01:33:47;;;;;;;;;;;;;;;;;;5075678;28;1192;-70
2022/08/14 01:36:14;;;;;;;;;;;;;;;;;;5093274;28;1076;-70
2022/08/14 01:38:41;;;;;;;;;;;;;;;;;;5075825;28;1266;-70
2022/08/14 01:41:08;;;;;;;;;;;;;;;;;;5075442;28;1207;-70
2022/08/14 01:43:42;;;;;;;;;;;;;;;;;;5092936;28;999;-70
2022/08/14 01:46:10;;;;;;;;;;;;;;;;;;5074993;28;1961;-70
2022/08/14 01:48:35;;;;;;;;;;;;;;;;;;5092860;28;845;-70
2022/08/14 01:51:01;;;;;;;;;;;;;;;;;;5074594;28;1404;-70
2022/08/14 01:53:27;;;;;;;;;;;;;;;;;;5093146;28;816;-70
2022/08/14 01:55:56;;;;;;;;;;;;;;;;;;5075492;28;1005;-70
2022/08/14 01:58:24;;;;;;;;;;;;;;;;;;5074506;28;1230;-70
2022/08/14 02:00:55;;;;;;;;;;;;;;;;;;5092410;28;809;-70
2022/08/14 02:03:22;;;;;;;;;;;;;;;;;;5074218;28;1334;-69
2022/08/14 02:05:48;;;;;;;;;;;;;;;;;;5092389;28;1890;-70
2022/08/14 02:08:16;;;;;;;;;;;;;;;;;;5092203;28;809;-69
2022/08/14 02:10:42;;;;;;;;;;;;;;;;;;5092465;28;1011;-70
2022/08/14 02:13:09;;;;;;;;;;;;;;;;;;5092490;28;844;-70
2022/08/14 02:15:35;;;;;;;;;;;;;;;;;;5091973;28;805;-70
2022/08/14 02:18:03;;;;;;;;;;;;;;;;;;5091803;28;991;-70
2022/08/14 02:20:32;;;;;;;;;;;;;;;;;;5073904;28;812;-70
2022/08/14 02:22:57;;;;;;;;;;;;;;;;;;5092732;28;896;-70
2022/08/14 02:25:23;;;;;;;;;;;;;;;;;;5073924;28;1894;-70
2022/08/14 02:27:48;;;;;;;;;;;;;;;;;;5057197;28;1322;-70
2022/08/14 02:30:14;;;;;;;;;;;;;;;;;;5091853;28;848;-70
2022/08/14 02:32:39;;;;;;;;;;;;;;;;;;5057176;28;1281;-69
2022/08/14 02:35:12;;;;;;;;;;;;;;;;;;5073124;28;1443;-70
2022/08/14 02:37:38;;;;;;;;;;;;;;;;;;5091674;28;907;-70
2022/08/14 02:40:04;;;;;;;;;;;;;;;;;;5073305;28;1302;-70
2022/08/14 02:42:31;;;;;;;;;;;;;;;;;;5091457;28;820;-69
2022/08/14 02:44:56;;;;;;;;;;;;;;;;;;5073458;28;1913;-70
2022/08/14 02:47:22;;;;;;;;;;;;;;;;;;5056889;28;1524;-69
2022/08/14 02:49:47;;;;;;;;;;;;;;;;;;5091453;28;914;-70
2022/08/14 02:52:12;;;;;;;;;;;;;;;;;;5072947;28;1317;-70
2022/08/14 02:54:39;;;;;;;;;;;;;;;;;;5090864;28;1378;-70
2022/08/14 02:57:05;;;;;;;;;;;;;;;;;;5072524;28;837;-70
2022/08/14 02:59:31;;;;;;;;;;;;;;;;;;5072840;28;1262;-70
2022/08/14 03:01:57;;;;;;;;;;;;;;;;;;5073457;28;1867;-70
2022/08/14 03:04:22;;;;;;;;;;;;;;;;;;5091542;28;908;-70
2022/08/14 03:06:49;;;;;;;;;;;;;;;;;;5073335;28;1898;-70
2022/08/14 03:09:14;;;;;;;;;;;;;;;;;;5056932;28;1211;-70
2022/08/14 03:11:41;;;;;;;;;;;;;;;;;;5091968;28;915;-70
2022/08/14 03:14:08;;;;;;;;;;;;;;;;;;5091736;28;836;-70
2022/08/14 03:16:35;;;;;;;;;;;;;;;;;;5073715;28;813;-70
2022/08/14 03:19:00;;;;;;;;;;;;;;;;;;5091792;28;920;-70
2022/08/14 03:21:26;;;;;;;;;;;;;;;;;;5091259;28;915;-70
2022/08/14 03:23:59;;;;;;;;;;;;;;;;;;5092734;28;935;-70
2022/08/14 03:26:26;;;;;;;;;;;;;;;;;;5094104;28;1894;-70
2022/08/14 03:28:51;;;;;;;;;;;;;;;;;;5094377;28;841;-70
2022/08/14 03:31:21;;;;;;;;;;;;;;;;;;5093545;28;801;-70
2022/08/14 03:33:46;;;;;;;;;;;;;;;;;;5092612;28;896;-69
2022/08/14 03:36:13;;;;;;;;;;;;;;;;;;5069763;28;1199;-69
2022/08/14 03:38:41;;;;;;;;;;;;;;;;;;5069547;28;1362;-69
2022/08/14 03:41:34;;;;;;;;;;;;;;;;;;5070639;28;871;-69
2022/08/14 03:44:00;;;;;;;;;;;;;;;;;;5069106;28;1262;-69
2022/08/14 03:46:30;;;;;;;;;;;;;;;;;;5069387;28;2015;-70
2022/08/14 03:48:55;;;;;;;;;;;;;;;;;;5070841;28;875;-70
2022/08/14 03:51:27;;;;;;;;;;;;;;;;;;5070939;28;824;-69
2022/08/14 03:53:53;;;;;;;;;;;;;;;;;;5070905;28;844;-70
2022/08/14 03:56:18;;;;;;;;;;;;;;;;;;5070663;28;990;-70
2022/08/14 03:58:46;;;;;;;;;;;;;;;;;;5071266;28;867;-69
2022/08/14 04:01:12;;;;;;;;;;;;;;;;;;5070875;28;841;-70
2022/08/14 04:03:38;;;;;;;;;;;;;;;;;;5071066;28;824;-70
2022/08/14 04:06:04;;;;;;;;;;;;;;;;;;5069286;28;1902;-70
2022/08/14 04:08:29;;;;;;;;;;;;;;;;;;5055343;28;1215;-71
2022/08/14 04:10:56;;;;;;;;;;;;;;;;;;5056433;28;1305;-70
2022/08/14 04:13:21;;;;;;;;;;;;;;;;;;5075220;28;1210;-70
2022/08/14 04:15:46;;;;;;;;;;;;;;;;;;5055920;28;1360;-70
2022/08/14 04:18:12;;;;;;;;;;;;;;;;;;5056281;28;1230;-70
2022/08/14 04:20:39;;;;;;;;;;;;;;;;;;5074267;28;931;-70
2022/08/14 04:23:05;;;;;;;;;;;;;;;;;;5074480;28;941;-70
2022/08/14 04:25:32;;;;;;;;;;;;;;;;;;5073629;28;1959;-70
2022/08/14 04:27:58;;;;;;;;;;;;;;;;;;5074346;28;895;-70
2022/08/14 04:30:27;;;;;;;;;;;;;;;;;;5072664;28;1417;-70
2022/08/14 04:32:53;;;;;;;;;;;;;;;;;;5073541;28;868;-70
2022/08/14 04:35:18;;;;;;;;;;;;;;;;;;5072031;28;1094;-70
2022/08/14 04:45:56;;;;;;;;;;;;;;;;;;5074072;28;1965;-70
2022/08/14 04:48:21;;;;;;;;;;;;;;;;;;5073772;28;844;-70
2022/08/14 04:50:49;;;;;;;;;;;;;;;;;;5072337;28;1442;-70
2022/08/14 04:53:16;;;;;;;;;;;;;;;;;;5073395;28;991;-70
2022/08/14 04:55:43;;;;;;;;;;;;;;;;;;5073373;28;997;-70
2022/08/14 04:58:09;;;;;;;;;;;;;;;;;;5072317;28;754;-70
2022/08/14 05:00:34;;;;;;;;;;;;;;;;;;5071416;28;1250;-70
2022/08/14 05:03:02;;;;;;;;;;;;;;;;;;5071667;28;1241;-70
2022/08/14 05:05:27;;;;;;;;;;;;;;;;;;5055009;28;1945;-69
2022/08/14 05:07:52;;;;;;;;;;;;;;;;;;5073162;28;840;-70
2022/08/14 05:10:22;;;;;;;;;;;;;;;;;;5071706;28;1263;-70
2022/08/14 05:12:48;;;;;;;;;;;;;;;;;;5071541;28;1242;-70
2022/08/14 05:15:13;;;;;;;;;;;;;;;;;;5071424;28;1190;-70
2022/08/14 05:17:42;;;;;;;;;;;;;;;;;;5072533;28;856;-71
2022/08/14 05:20:08;;;;;;;;;;;;;;;;;;5054838;28;1333;-70
2022/08/14 05:22:33;;;;;;;;;;;;;;;;;;5071083;28;1205;-70
2022/08/14 05:24:59;;;;;;;;;;;;;;;;;;5071437;28;1961;-70
2022/08/14 05:27:24;;;;;;;;;;;;;;;;;;5072649;28;899;-70
2022/08/14 05:29:54;;;;;;;;;;;;;;;;;;5054462;28;1167;-71
2022/08/14 05:32:19;;;;;;;;;;;;;;;;;;5072564;28;902;-70
2022/08/14 05:34:44;;;;;;;;;;;;;;;;;;5072605;28;1065;-71
2022/08/14 05:37:10;;;;;;;;;;;;;;;;;;5093393;28;956;-71
2022/08/14 05:39:37;;;;;;;;;;;;;;;;;;5074435;28;888;-70
2022/08/14 05:42:03;;;;;;;;;;;;;;;;;;5092724;28;844;-71
2022/08/14 05:44:28;;;;;;;;;;;;;;;;;;5092541;28;989;-70
2022/08/14 05:46:53;;;;;;;;;;;;;;;;;;5074495;28;1968;-71
2022/08/14 05:49:18;;;;;;;;;;;;;;;;;;5074391;28;638;-71
2022/08/14 05:51:45;;;;;;;;;;;;;;;;;;5074706;28;884;-71
2022/08/14 05:54:11;;;;;;;;;;;;;;;;;;5075187;28;915;-71
2022/08/14 05:56:36;;;;;;;;;;;;;;;;;;5092509;28;1040;-71
2022/08/14 05:59:02;;;;;;;;;;;;;;;;;;5057726;28;1490;-72
2022/08/14 06:01:27;;;;;;;;;;;;;;;;;;5073912;28;1235;-71
2022/08/14 06:03:53;;;;;;;;;;;;;;;;;;5057349;28;1377;-71
2022/08/14 06:06:18;;;;;;;;;;;;;;;;;;5075076;28;1955;-71
2022/08/14 06:08:44;;;;;;;;;;;;;;;;;;5074390;28;1250;-71
2022/08/14 06:11:09;;;;;;;;;;;;;;;;;;5093007;28;1066;-71
2022/08/14 06:13:38;;;;;;;;;;;;;;;;;;5093263;28;1050;-71
2022/08/14 06:16:04;;;;;;;;;;;;;;;;;;5075172;28;1373;-71
2022/08/14 06:18:29;;;;;;;;;;;;;;;;;;5092676;28;887;-72
2022/08/14 06:20:55;;;;;;;;;;;;;;;;;;5093573;28;821;-71
2022/08/14 06:23:20;;;;;;;;;;;;;;;;;;5076067;28;825;-72
2022/08/14 06:25:45;;;;;;;;;;;;;;;;;;5075314;28;1906;-72
2022/08/14 06:28:17;;;;;;;;;;;;;;;;;;5059480;28;1133;-71
2022/08/14 06:30:43;;;;;;;;;;;;;;;;;;5093662;28;1299;-71
2022/08/14 06:33:08;;;;;;;;;;;;;;;;;;5074682;28;1202;-71
2022/08/14 06:35:33;;;;;;;;;;;;;;;;;;5073973;28;1238;-71
2022/08/14 06:37:59;;;;;;;;;;;;;;;;;;5092800;28;919;-71
2022/08/14 06:40:27;;;;;;;;;;;;;;;;;;5092577;28;947;-71
2022/08/14 06:42:53;;;;;;;;;;;;;;;;;;5091802;28;939;-71
2022/08/14 06:45:18;;;;;;;;;;;;;;;;;;5092194;28;1987;-72
2022/08/14 06:47:45;;;;;;;;;;;;;;;;;;5091715;28;879;-71
2022/08/14 06:50:11;;;;;;;;;;;;;;;;;;5091750;28;931;-71
2022/08/14 06:52:38;;;;;;;;;;;;;;;;;;5073256;28;1227;-71
2022/08/14 06:55:04;;;;;;;;;;;;;;;;;;5091823;28;861;-70
2022/08/14 06:57:40;;;;;;;;;;;;;;;;;;5091192;28;1002;-70
2022/08/14 07:00:10;;;;;;;;;;;;;;;;;;5073252;28;1212;-71
2022/08/14 07:08:04;;;;;;;;;;;;;;;;;;5092043;28;818;-71
2022/08/14 07:10:30;;;;;;;;;;;;;;;;;;5073199;28;1226;-71
2022/08/14 07:12:55;;;;;;;;;;;;;;;;;;5090957;28;828;-71
2022/08/14 07:15:21;;;;;;;;;;;;;;;;;;5072879;28;896;-71
2022/08/14 07:17:46;;;;;;;;;;;;;;;;;;5055693;28;1352;-71
2022/08/14 07:20:12;;;;;;;;;;;;;;;;;;5073185;28;1302;-71
2022/08/14 07:22:38;;;;;;;;;;;;;;;;;;5076060;28;1447;-71
2022/08/14 07:25:06;;;;;;;;;;;;;;;;;;5077498;28;1909;-71
2022/08/14 07:27:31;;;;;;;;;;;;;;;;;;5090484;28;1321;-71
2022/08/14 07:29:57;;;;;;;;;;;;;;;;;;5092537;28;1116;-71
2022/08/14 07:32:22;;;;;;;;;;;;;;;;;;5077010;28;1204;-70
2022/08/14 07:34:47;;;;;;;;;;;;;;;;;;5077299;28;1274;-70
2022/08/14 07:37:13;;;;;;;;;;;;;;;;;;5111387;28;1162;-70
2022/08/14 07:39:38;;;;;;;;;;;;;;;;;;5112431;28;887;-70
2022/08/14 07:42:03;;;;;;;;;;;;;;;;;;5095279;28;1259;-70
2022/08/14 07:44:29;;;;;;;;;;;;;;;;;;5114226;28;1100;-71
2022/08/14 07:46:54;;;;;;;;;;;;;;;;;;5113726;28;1968;-71
2022/08/14 07:49:20;;;;;;;;;;;;;;;;;;5114168;28;856;-70
2022/08/14 07:51:45;;;;;;;;;;;;;;;;;;5113949;28;887;-70
2022/08/14 07:54:11;;;;;;;;;;;;;;;;;;5115901;28;927;-70
2022/08/14 07:56:36;;;;;;;;;;;;;;;;;;5113990;28;1329;-71
2022/08/14 07:59:02;;;;;;;;;;;;;;;;;;5114563;28;962;-71
2022/08/14 08:01:29;;;;;;;;;;;;;;;;;;5105337;28;1222;-71
2022/08/14 08:03:57;;;;;;;;;;;;;;;;;;5098518;28;1211;-70
2022/08/14 08:06:24;;;;;;;;;;;;;;;;;;5093785;28;1894;-71
2022/08/14 08:08:52;;;;;;;;;;;;;;;;;;5113693;28;1159;-71
2022/08/14 08:11:18;;;;;;;;;;;;;;;;;;5094149;28;1210;-72
2022/08/14 08:13:43;;;;;;;;;;;;;;;;;;5113760;28;1164;-71
2022/08/14 08:16:09;;;;;;;;;;;;;;;;;;5116015;28;1049;-71
2022/08/14 08:18:34;;;;;;;;;;;;;;;;;;5114665;28;951;-71
2022/08/14 08:21:00;;;;;;;;;;;;;;;;;;5115500;28;887;-71
2022/08/14 08:23:27;;;;;;;;;;;;;;;;;;5113653;28;1385;-72
2022/08/14 08:25:53;;;;;;;;;;;;;;;;;;5114350;28;1914;-71
2022/08/14 08:28:19;;;;;;;;;;;;;;;;;;5114606;28;970;-71
2022/08/14 08:30:50;;;;;;;;;;;;;;;;;;5114486;27;934;-72
2022/08/14 08:33:17;;;;;;;;;;;;;;;;;;5114413;28;781;-71
2022/08/14 08:35:42;;;;;;;;;;;;;;;;;;5113734;28;1187;-71
2022/08/14 08:38:13;;;;;;;;;;;;;;;;;;5114554;28;938;-70
2022/08/14 08:40:42;;;;;;;;;;;;;;;;;;5112165;28;1360;-72
2022/08/14 08:43:16;;;;;;;;;;;;;;;;;;5112984;28;1147;-71
2022/08/14 08:45:41;;;;;;;;;;;;;;;;;;5112307;28;1965;-71
2022/08/14 08:48:06;;;;;;;;;;;;;;;;;;5111973;28;1312;-71
2022/08/14 08:50:34;;;;;;;;;;;;;;;;;;5112777;28;1202;-71
2022/08/14 08:53:01;;;;;;;;;;;;;;;;;;5113627;28;910;-71
2022/08/14 08:55:29;;;;;;;;;;;;;;;;;;5113960;28;989;-71
2022/08/14 08:57:55;;;;;;;;;;;;;;;;;;5112916;28;1462;-72
2022/08/14 09:00:20;;;;;;;;;;;;;;;;;;5113194;28;1308;-71
2022/08/14 09:03:02;;;;;;;;;;;;;;;;;;5113149;28;907;-71
2022/08/14 09:05:27;;;;;;;;;;;;;;;;;;5112699;28;1893;-71
2022/08/14 09:07:53;;;;;;;;;;;;;;;;;;5112512;28;828;-71
2022/08/14 09:10:18;;;;;;;;;;;;;;;;;;5113794;28;855;-71
2022/08/14 09:12:44;;;;;;;;;;;;;;;;;;5094427;28;1207;-71
2022/08/14 09:15:10;;;;;;;;;;;;;;;;;;5112150;28;808;-71
2022/08/14 09:17:35;;;;;;;;;;;;;;;;;;5113228;28;891;-71
2022/08/14 09:20:01;;;;;;;;;;;;;;;;;;5095135;28;1243;-71
2022/08/14 09:22:27;;;;;;;;;;;;;;;;;;5129300;27;1173;-70
2022/08/14 09:24:53;;;;;;;;;;;;;;;;;;5111784;28;1201;-70
2022/08/14 09:27:18;;;;;;;;;;;;;;;;;;5112207;28;1913;-71
2022/08/14 09:29:43;;;;;;;;;;;;;;;;;;5112886;28;931;-70
2022/08/14 09:32:11;;;;;;;;;;;;;;;;;;5113544;28;812;-70
2022/08/14 09:34:55;;;;;;;;;;;;;;;;;;5113217;28;1052;-70
2022/08/14 09:37:33;;;;;;;;;;;;;;;;;;5113634;28;832;-71
2022/08/14 09:40:11;;;;;;;;;;;;;;;;;;5113482;28;847;-70
2022/08/14 09:42:55;;;;;;;;;;;;;;;;;;5113358;28;825;-70
2022/08/14 09:45:29;;;;;;;;;;;;;;;;;;5113448;28;1961;-71
2022/08/14 09:47:55;;;;;;;;;;;;;;;;;;5112133;28;1289;-70
2022/08/14 09:50:31;;;;;;;;;;;;;;;;;;5112591;28;1340;-70
2022/08/14 09:52:57;;;;;;;;;;;;;;;;;;5111503;28;1400;-70
2022/08/14 09:55:23;;;;;;;;;;;;;;;;;;5114012;28;1001;-71
2022/08/14 09:57:50;;;;;;;;;;;;;;;;;;5111906;28;1414;-71
2022/08/14 10:00:18;;;;;;;;;;;;;;;;;;5113137;28;839;-71
2022/08/14 10:03:01;;;;;;;;;;;;;;;;;;5110839;28;1305;-71
2022/08/14 10:05:29;;;;;;;;;;;;;;;;;;5110912;28;1886;-71
2022/08/14 10:07:54;;;;;;;;;;;;;;;;;;5112446;28;907;-71
2022/08/14 10:10:30;;;;;;;;;;;;;;;;;;5111328;28;1359;-71
2022/08/14 10:12:56;;;;;;;;;;;;;;;;;;5112241;28;836;-71
2022/08/14 10:15:25;;;;;;;;;;;;;;;;;;5111621;28;1321;-71
2022/08/14 10:18:02;;;;;;;;;;;;;;;;;;5112005;28;840;-71
2022/08/14 10:20:32;;;;;;;;;;;;;;;;;;5112797;28;918;-71
2022/08/14 10:23:07;;;;;;;;;;;;;;;;;;5110662;28;1429;-71
2022/08/14 10:25:38;;;;;;;;;;;;;;;;;;5110783;28;1929;-71
2022/08/14 10:28:03;;;;;;;;;;;;;;;;;;5111705;28;824;-71
2022/08/14 10:30:35;;;;;;;;;;;;;;;;;;5110835;28;1233;-71
2022/08/14 10:33:00;;;;;;;;;;;;;;;;;;5111702;28;832;-71
2022/08/14 10:35:25;;;;;;;;;;;;;;;;;;5110639;28;1191;-71
2022/08/14 10:37:51;;;;;;;;;;;;;;;;;;5111348;28;936;-70
2022/08/14 10:40:27;;;;;;;;;;;;;;;;;;5110997;28;1229;-71
2022/08/14 10:42:52;;;;;;;;;;;;;;;;;;5110335;28;1554;-70
2022/08/14 10:45:19;;;;;;;;;;;;;;;;;;5111030;28;1971;-70
2022/08/14 10:47:45;;;;;;;;;;;;;;;;;;5109894;28;1494;-70
2022/08/14 10:50:10;;;;;;;;;;;;;;;;;;5110679;28;820;-70
2022/08/14 10:52:37;;;;;;;;;;;;;;;;;;5112326;28;730;-70
2022/08/14 10:55:08;;;;;;;;;;;;;;;;;;5093455;28;1206;-70
2022/08/14 10:57:34;;;;;;;;;;;;;;;;;;5111791;28;1136;-70
2022/08/14 11:00:10;;;;;;;;;;;;;;;;;;5110918;28;1353;-70
2022/08/14 11:02:36;;;;;;;;;;;;;;;;;;5112491;28;817;-71
2022/08/14 11:05:16;;;;;;;;;;;;;;;;;;5112391;28;910;-70
2022/08/14 11:08:01;;;;;;;;;;;;;;;;;;5111363;28;1333;-71
2022/08/14 11:10:47;;;;;;;;;;;;;;;;;;5111573;28;1103;-70
2022/08/14 11:13:17;;;;;;;;;;;;;;;;;;5111228;28;1242;-70
2022/08/14 11:15:45;;;;;;;;;;;;;;;;;;5112119;28;792;-70
2022/08/14 11:18:11;;;;;;;;;;;;;;;;;;5115666;28;819;-70
2022/08/14 11:20:37;;;;;;;;;;;;;;;;;;5117249;27;907;-70
2022/08/14 11:23:03;;;;;;;;;;;;;;;;;;5116701;28;910;-71
2022/08/14 11:25:30;;;;;;;;;;;;;;;;;;5115616;28;1972;-70
2022/08/14 11:27:56;;;;;;;;;;;;;;;;;;5116458;28;899;-70
2022/08/14 11:30:23;;;;;;;;;;;;;;;;;;5116906;28;880;-70
2022/08/14 11:32:49;;;;;;;;;;;;;;;;;;5117096;28;807;-70
2022/08/14 11:35:19;;;;;;;;;;;;;;;;;;5098773;28;1321;-70
2022/08/14 11:37:53;;;;;;;;;;;;;;;;;;5115514;28;1236;-70
2022/08/14 11:40:19;;;;;;;;;;;;;;;;;;5115534;28;1106;-70
2022/08/14 11:42:47;;;;;;;;;;;;;;;;;;5114503;28;1352;-70
2022/08/14 11:45:13;;;;;;;;;;;;;;;;;;5115873;28;1910;-71
2022/08/14 11:47:38;;;;;;;;;;;;;;;;;;5115148;28;1450;-70
2022/08/14 11:50:36;;;;;;;;;;;;;;;;;;5114347;28;907;-70
2022/08/14 11:53:01;;;;;;;;;;;;;;;;;;5080760;28;1448;-70
2022/08/14 11:55:32;;;;;;;;;;;;;;;;;;5116034;28;1026;-71
2022/08/14 11:58:00;;;;;;;;;;;;;;;;;;5114125;28;1369;-71
2022/08/14 12:00:25;;;;;;;;;;;;;;;;;;5115585;28;840;-70
2022/08/14 12:02:52;;;;;;;;;;;;;;;;;;5113895;28;1278;-70
2022/08/14 12:05:29;;;;;;;;;;;;;;;;;;5113924;28;1968;-71
2022/08/14 12:07:54;;;;;;;;;;;;;;;;;;5113217;28;1463;-71
2022/08/14 12:10:20;;;;;;;;;;;;;;;;;;5114413;28;1324;-71
2022/08/14 12:12:48;;;;;;;;;;;;;;;;;;5113544;28;1493;-71
2022/08/14 12:15:13;;;;;;;;;;;;;;;;;;5114787;28;829;-71
2022/08/14 12:17:44;;;;;;;;;;;;;;;;;;5097296;28;1146;-71
2022/08/14 12:20:10;;;;;;;;;;;;;;;;;;5114943;28;871;-71
2022/08/14 12:22:38;;;;;;;;;;;;;;;;;;5115178;28;840;-71
2022/08/14 12:25:04;;;;;;;;;;;;;;;;;;5114314;28;926;-71
2022/08/14 12:27:49;;;;;;;;;;;;;;;;;;5114755;27;1949;-70
2022/08/14 12:30:25;;;;;;;;;;;;;;;;;;5114649;27;847;-71
2022/08/14 12:32:50;;;;;;;;;;;;;;;;;;5113205;28;1154;-71
2022/08/14 12:35:16;;;;;;;;;;;;;;;;;;5113034;28;1305;-71
2022/08/14 12:37:48;;;;;;;;;;;;;;;;;;5113570;28;1229;-71
2022/08/14 12:40:14;;;;;;;;;;;;;;;;;;5114720;28;986;-71
2022/08/14 12:42:40;;;;;;;;;;;;;;;;;;5096929;28;1198;-71
2022/08/14 12:45:06;;;;;;;;;;;;;;;;;;5114207;28;885;-71
2022/08/14 12:47:31;;;;;;;;;;;;;;;;;;5095580;28;2268;-72
2022/08/14 12:49:57;;;;;;;;;;;;;;;;;;5112833;28;1427;-71
2022/08/14 12:52:26;;;;;;;;;;;;;;;;;;5096683;28;1326;-72
2022/08/14 12:55:03;;;;;;;;;;;;;;;;;;5114295;28;990;-71
2022/08/14 12:57:55;;;;;;;;;;;;;;;;;;5114845;28;869;-71
2022/08/14 13:00:22;;;;;;;;;;;;;;;;;;5111782;28;1130;-71
2022/08/14 13:02:50;;;;;;;;;;;;;;;;;;5113551;28;1214;-71
2022/08/14 13:05:18;;;;;;;;;;;;;;;;;;5113285;28;1886;-71
2022/08/14 13:07:43;;;;;;;;;;;;;;;;;;5113787;28;1273;-71
2022/08/14 13:10:10;;;;;;;;;;;;;;;;;;5113098;28;1423;-71
2022/08/14 13:12:37;;;;;;;;;;;;;;;;;;5114466;28;879;-71
2022/08/14 13:15:03;;;;;;;;;;;;;;;;;;5113214;28;1198;-71
2022/08/14 13:17:30;;;;;;;;;;;;;;;;;;5114394;28;1253;-71
2022/08/14 13:19:56;;;;;;;;;;;;;;;;;;5114876;28;890;-71
2022/08/14 13:22:25;;;;;;;;;;;;;;;;;;5114489;28;777;-70
2022/08/14 13:24:51;;;;;;;;;;;;;;;;;;5113688;28;855;-71
2022/08/14 13:27:18;;;;;;;;;;;;;;;;;;5113515;28;1907;-71
2022/08/14 13:29:44;;;;;;;;;;;;;;;;;;5114407;28;843;-70
2022/08/14 13:32:10;;;;;;;;;;;;;;;;;;5114824;28;907;-71
2022/08/14 13:34:36;;;;;;;;;;;;;;;;;;5117368;28;785;-71
2022/08/14 13:37:05;;;;;;;;;;;;;;;;;;5115146;28;1099;-71
2022/08/14 13:39:31;;;;;;;;;;;;;;;;;;5115077;28;848;-71
2022/08/14 13:42:03;;;;;;;;;;;;;;;;;;5114738;28;894;-72
2022/08/14 13:44:28;;;;;;;;;;;;;;;;;;5096372;28;1242;-72
2022/08/14 13:46:54;;;;;;;;;;;;;;;;;;5113202;28;1899;-71
2022/08/14 13:49:19;;;;;;;;;;;;;;;;;;5111806;28;1178;-71
2022/08/14 13:51:46;;;;;;;;;;;;;;;;;;5111609;28;1367;-70
2022/08/14 13:54:15;;;;;;;;;;;;;;;;;;5112266;28;1440;-70
2022/08/14 13:56:41;;;;;;;;;;;;;;;;;;5111965;28;1293;-70
2022/08/14 13:59:06;;;;;;;;;;;;;;;;;;5111084;28;1154;-70
2022/08/14 14:01:35;;;;;;;;;;;;;;;;;;5095068;28;1222;-71
2022/08/14 14:04:05;;;;;;;;;;;;;;;;;;5111914;28;1308;-70
2022/08/14 14:06:32;;;;;;;;;;;;;;;;;;5111434;28;1897;-71
2022/08/14 14:08:57;;;;;;;;;;;;;;;;;;5111144;28;1373;-70
2022/08/14 14:11:23;;;;;;;;;;;;;;;;;;5112434;28;986;-70
2022/08/14 14:13:52;;;;;;;;;;;;;;;;;;5111378;28;1317;-70
2022/08/14 14:16:18;;;;;;;;;;;;;;;;;;5110961;28;1218;-70
2022/08/14 14:18:48;;;;;;;;;;;;;;;;;;5112680;27;832;-71
2022/08/14 14:21:16;;;;;;;;;;;;;;;;;;5112035;28;1054;-70
2022/08/14 14:23:43;;;;;;;;;;;;;;;;;;5112689;28;954;-70
2022/08/14 14:26:09;;;;;;;;;;;;;;;;;;5111958;28;1969;-70
2022/08/14 14:28:35;;;;;;;;;;;;;;;;;;5113007;27;939;-70
2022/08/14 14:31:04;;;;;;;;;;;;;;;;;;5111415;28;836;-70
2022/08/14 14:33:29;;;;;;;;;;;;;;;;;;5110550;28;1356;-70
2022/08/14 14:35:56;;;;;;;;;;;;;;;;;;5111569;28;1021;-70
2022/08/14 14:38:24;;;;;;;;;;;;;;;;;;5112089;28;879;-71
2022/08/14 14:40:50;;;;;;;;;;;;;;;;;;5112559;28;892;-70
2022/08/14 14:43:16;;;;;;;;;;;;;;;;;;5111479;28;916;-71
2022/08/14 14:45:45;;;;;;;;;;;;;;;;;;5094460;28;1910;-70
2022/08/14 14:48:11;;;;;;;;;;;;;;;;;;5112369;28;880;-71
2022/08/14 14:50:38;;;;;;;;;;;;;;;;;;5113261;28;860;-71
2022/08/14 14:53:04;;;;;;;;;;;;;;;;;;5112787;28;884;-70
2022/08/14 14:55:30;;;;;;;;;;;;;;;;;;5078366;28;1393;-70
2022/08/14 14:57:57;;;;;;;;;;;;;;;;;;5071921;28;832;-71
2022/08/14 15:00:22;;;;;;;;;;;;;;;;;;5070079;28;1194;-70
2022/08/14 15:02:50;;;;;;;;;;;;;;;;;;5070394;28;915;-70
2022/08/14 15:05:16;;;;;;;;;;;;;;;;;;5070031;28;1226;-71
2022/08/14 15:07:42;;;;;;;;;;;;;;;;;;5070120;28;1898;-71
2022/08/14 15:10:09;;;;;;;;;;;;;;;;;;5071329;28;856;-70
2022/08/14 15:12:34;;;;;;;;;;;;;;;;;;5071319;28;868;-70
2022/08/14 15:15:00;;;;;;;;;;;;;;;;;;5069657;28;1158;-71
2022/08/14 15:17:25;;;;;;;;;;;;;;;;;;5069776;28;1230;-70
2022/08/14 15:19:51;;;;;;;;;;;;;;;;;;5071236;28;794;-70
2022/08/14 15:22:16;;;;;;;;;;;;;;;;;;5069745;28;785;-70
2022/08/14 15:24:41;;;;;;;;;;;;;;;;;;5071285;28;836;-70
2022/08/14 15:27:08;;;;;;;;;;;;;;;;;;5069459;28;1894;-70
2022/08/14 15:29:39;;;;;;;;;;;;;;;;;;5071266;28;872;-70
2022/08/14 15:32:05;;;;;;;;;;;;;;;;;;5070838;28;856;-70
2022/08/14 15:34:30;;;;;;;;;;;;;;;;;;5069519;28;939;-70
2022/08/14 15:36:56;;;;;;;;;;;;;;;;;;5069326;28;1554;-70
2022/08/14 15:39:21;;;;;;;;;;;;;;;;;;5052851;28;1421;-71
2022/08/14 15:41:47;;;;;;;;;;;;;;;;;;5053033;28;1279;-70
2022/08/14 15:44:13;;;;;;;;;;;;;;;;;;5069326;28;1229;-70
2022/08/14 15:46:38;;;;;;;;;;;;;;;;;;5069841;28;1911;-71
2022/08/14 15:49:04;;;;;;;;;;;;;;;;;;5071100;28;836;-70
2022/08/14 15:51:30;;;;;;;;;;;;;;;;;;5069664;28;848;-69
2022/08/14 15:53:59;;;;;;;;;;;;;;;;;;5069377;28;1106;-70
2022/08/14 15:56:24;;;;;;;;;;;;;;;;;;5052778;28;1199;-69
2022/08/14 15:58:49;;;;;;;;;;;;;;;;;;5069596;28;1356;-69
2022/08/14 16:01:24;;;;;;;;;;;;;;;;;;5070199;28;600;-70
2022/08/14 16:03:54;;;;;;;;;;;;;;;;;;5072134;28;856;-69
2022/08/14 16:06:21;;;;;;;;;;;;;;;;;;5073229;28;1929;-70
2022/08/14 16:08:48;;;;;;;;;;;;;;;;;;5074955;28;903;-70
2022/08/14 16:11:13;;;;;;;;;;;;;;;;;;5074688;28;872;-70
2022/08/14 16:13:42;;;;;;;;;;;;;;;;;;5074688;28;908;-70
2022/08/14 16:16:13;;;;;;;;;;;;;;;;;;5073360;28;1324;-70
2022/08/14 16:18:39;;;;;;;;;;;;;;;;;;5074032;28;1472;-70
2022/08/14 16:21:10;;;;;;;;;;;;;;;;;;5073407;28;1110;-69
2022/08/14 16:23:36;;;;;;;;;;;;;;;;;;5073621;28;1210;-70
2022/08/14 16:26:02;;;;;;;;;;;;;;;;;;5074543;28;1887;-69
2022/08/14 16:28:30;;;;;;;;;;;;;;;;;;5075083;28;820;-69
2022/08/14 16:30:57;;;;;;;;;;;;;;;;;;5074332;28;1002;-69
2022/08/14 16:33:22;;;;;;;;;;;;;;;;;;5073857;28;848;-69
2022/08/14 16:35:50;;;;;;;;;;;;;;;;;;5058457;28;1321;-69
2022/08/14 16:38:16;;;;;;;;;;;;;;;;;;5110652;28;1083;-70
2022/08/14 16:40:42;;;;;;;;;;;;;;;;;;5113020;28;1328;-69
2022/08/14 16:43:08;;;;;;;;;;;;;;;;;;5103566;28;1214;-71
2022/08/14 16:45:34;;;;;;;;;;;;;;;;;;5106896;28;1898;-70
2022/08/14 16:47:59;;;;;;;;;;;;;;;;;;5103871;28;1142;-70
2022/08/14 16:50:24;;;;;;;;;;;;;;;;;;5112734;28;1154;-70
2022/08/14 16:52:50;;;;;;;;;;;;;;;;;;5113760;28;1214;-71
2022/08/14 16:55:15;;;;;;;;;;;;;;;;;;5113826;28;1328;-70
2022/08/14 16:57:53;;;;;;;;;;;;;;;;;;5115565;28;812;-70
2022/08/14 17:00:37;;;;;;;;;;;;;;;;;;5104146;28;1087;-70
2022/08/14 17:03:06;;;;;;;;;;;;;;;;;;5093894;28;1155;-69
2022/08/14 17:05:36;;;;;;;;;;;;;;;;;;5093781;28;1894;-69
2022/08/14 17:08:02;;;;;;;;;;;;;;;;;;5093149;28;877;-69
2022/08/14 17:10:27;;;;;;;;;;;;;;;;;;5091802;28;1214;-69
2022/08/14 17:13:13;;;;;;;;;;;;;;;;;;5093269;28;913;-69
2022/08/14 17:15:38;;;;;;;;;;;;;;;;;;5090702;28;1220;-69
2022/08/14 17:18:03;;;;;;;;;;;;;;;;;;5091723;28;1250;-70
2022/08/14 17:20:28;;;;;;;;;;;;;;;;;;5091887;28;1054;-69
2022/08/14 17:22:57;;;;;;;;;;;;;;;;;;5091832;28;1247;-70
2022/08/14 17:25:35;;;;;;;;;;;;;;;;;;5092123;28;852;-69
2022/08/14 17:28:11;;;;;;;;;;;;;;;;;;5092786;28;935;-70